sensor_id;sensor_type;location;lat;lon;timestamp;P1;durP1;ratioP1;P2;durP2;ratioP2
76380;SDS011;65202;52.520;10.528;2022-11-15T00:01:10;34.58;;;21.33;;
76380;SDS011;65202;52.520;10.528;2022-11-15T00:03:44;33.38;;;21.15;;
76380;SDS011;65202;52.520;10.528;2022-11-15T00:06:13;37.00;;;22.70;;
76380;SDS011;65202;52.520;10.528;2022-11-15T00:08:40;34.15;;;22.08;;
76380;SDS011;65202;52.520;10.528;2022-11-15T00:11:08;35.00;;;22.67;;
76380;SDS011;65202;52.520;10.528;2022-11-15T00:13:38;30.77;;;19.88;;
76380;SDS011;65202;52.520;10.528;2022-11-15T00:16:06;36.55;;;21.85;;
76380;SDS011;65202;52.520;10.528;2022-11-15T00:18:33;31.70;;;20.55;;
76380;SDS011;65202;52.520;10.528;2022-11-15T00:21:04;37.33;;;22.95;;
76380;SDS011;65202;52.520;10.528;2022-11-15T00:23:36;32.95;;;20.40;;
76380;SDS011;65202;52.520;10.528;2022-11-15T00:26:04;30.77;;;19.65;;
76380;SDS011;65202;52.520;10.528;2022-11-15T00:28:31;36.60;;;21.95;;
76380;SDS011;65202;52.520;10.528;2022-11-15T00:31:00;30.60;;;19.98;;
76380;SDS011;65202;52.520;10.528;2022-11-15T00:33:32;34.60;;;21.60;;
76380;SDS011;65202;52.520;10.528;2022-11-15T00:36:04;36.97;;;21.98;;
76380;SDS011;65202;52.520;10.528;2022-11-15T00:38:38;35.67;;;22.17;;
76380;SDS011;65202;52.520;10.528;2022-11-15T00:41:06;38.15;;;23.65;;
76380;SDS011;65202;52.520;10.528;2022-11-15T00:43:36;32.90;;;20.83;;
76380;SDS011;65202;52.520;10.528;2022-11-15T00:46:03;37.20;;;22.77;;
76380;SDS011;65202;52.520;10.528;2022-11-15T00:48:31;33.80;;;21.27;;
76380;SDS011;65202;52.520;10.528;2022-11-15T00:50:58;40.40;;;23.48;;
76380;SDS011;65202;52.520;10.528;2022-11-15T00:53:26;41.45;;;23.95;;
76380;SDS011;65202;52.520;10.528;2022-11-15T00:55:53;38.90;;;22.95;;
76380;SDS011;65202;52.520;10.528;2022-11-15T00:58:20;36.40;;;22.77;;
76380;SDS011;65202;52.520;10.528;2022-11-15T01:00:47;42.83;;;24.30;;
76380;SDS011;65202;52.520;10.528;2022-11-15T01:03:15;39.70;;;23.75;;
76380;SDS011;65202;52.520;10.528;2022-11-15T01:05:42;39.45;;;23.35;;
76380;SDS011;65202;52.520;10.528;2022-11-15T01:08:12;41.00;;;22.92;;
76380;SDS011;65202;52.520;10.528;2022-11-15T01:10:41;39.65;;;23.50;;
76380;SDS011;65202;52.520;10.528;2022-11-15T01:13:09;36.22;;;22.35;;
76380;SDS011;65202;52.520;10.528;2022-11-15T01:15:38;40.70;;;23.58;;
76380;SDS011;65202;52.520;10.528;2022-11-15T01:18:08;38.10;;;23.25;;
76380;SDS011;65202;52.520;10.528;2022-11-15T01:20:39;36.15;;;21.55;;
76380;SDS011;65202;52.520;10.528;2022-11-15T01:23:08;35.85;;;20.80;;
76380;SDS011;65202;52.520;10.528;2022-11-15T01:25:36;38.03;;;21.77;;
76380;SDS011;65202;52.520;10.528;2022-11-15T01:28:04;37.30;;;22.27;;
76380;SDS011;65202;52.520;10.528;2022-11-15T01:30:31;33.28;;;20.63;;
76380;SDS011;65202;52.520;10.528;2022-11-15T01:32:58;37.75;;;22.45;;
76380;SDS011;65202;52.520;10.528;2022-11-15T01:35:26;30.50;;;19.58;;
76380;SDS011;65202;52.520;10.528;2022-11-15T01:37:53;33.75;;;20.52;;
76380;SDS011;65202;52.520;10.528;2022-11-15T01:40:20;30.52;;;18.90;;
76380;SDS011;65202;52.520;10.528;2022-11-15T01:42:47;36.60;;;22.63;;
76380;SDS011;65202;52.520;10.528;2022-11-15T01:45:15;35.70;;;22.50;;
76380;SDS011;65202;52.520;10.528;2022-11-15T01:47:45;34.03;;;21.20;;
76380;SDS011;65202;52.520;10.528;2022-11-15T01:50:20;32.85;;;20.70;;
76380;SDS011;65202;52.520;10.528;2022-11-15T01:52:54;38.55;;;23.48;;
76380;SDS011;65202;52.520;10.528;2022-11-15T01:55:25;33.40;;;21.50;;
76380;SDS011;65202;52.520;10.528;2022-11-15T01:57:57;36.35;;;21.33;;
76380;SDS011;65202;52.520;10.528;2022-11-15T02:00:29;40.38;;;23.52;;
76380;SDS011;65202;52.520;10.528;2022-11-15T02:02:58;37.13;;;21.88;;
76380;SDS011;65202;52.520;10.528;2022-11-15T02:05:25;35.78;;;21.90;;
76380;SDS011;65202;52.520;10.528;2022-11-15T02:07:53;35.28;;;21.15;;
76380;SDS011;65202;52.520;10.528;2022-11-15T02:10:22;34.20;;;21.40;;
76380;SDS011;65202;52.520;10.528;2022-11-15T02:12:51;38.88;;;22.50;;
76380;SDS011;65202;52.520;10.528;2022-11-15T02:15:20;32.50;;;19.95;;
76380;SDS011;65202;52.520;10.528;2022-11-15T02:24:03;40.20;;;23.08;;
76380;SDS011;65202;52.520;10.528;2022-11-15T02:30:27;31.88;;;20.00;;
76380;SDS011;65202;52.520;10.528;2022-11-15T02:33:11;32.22;;;19.52;;
76380;SDS011;65202;52.520;10.528;2022-11-15T02:36:02;31.60;;;19.80;;
76380;SDS011;65202;52.520;10.528;2022-11-15T02:38:43;32.60;;;20.00;;
76380;SDS011;65202;52.520;10.528;2022-11-15T02:44:34;31.73;;;19.90;;
76380;SDS011;65202;52.520;10.528;2022-11-15T02:47:11;25.85;;;17.13;;
76380;SDS011;65202;52.520;10.528;2022-11-15T02:49:46;30.90;;;19.83;;
76380;SDS011;65202;52.520;10.528;2022-11-15T02:54:56;30.77;;;17.77;;
76380;SDS011;65202;52.520;10.528;2022-11-15T03:00:35;31.85;;;19.58;;
76380;SDS011;65202;52.520;10.528;2022-11-15T03:03:24;35.97;;;20.87;;
76380;SDS011;65202;52.520;10.528;2022-11-15T03:06:20;32.35;;;19.42;;
76380;SDS011;65202;52.520;10.528;2022-11-15T03:09:30;29.08;;;18.00;;
76380;SDS011;65202;52.520;10.528;2022-11-15T03:12:39;29.77;;;18.67;;
76380;SDS011;65202;52.520;10.528;2022-11-15T03:15:18;28.98;;;18.58;;
76380;SDS011;65202;52.520;10.528;2022-11-15T03:18:05;36.40;;;20.20;;
76380;SDS011;65202;52.520;10.528;2022-11-15T03:20:45;38.30;;;23.38;;
76380;SDS011;65202;52.520;10.528;2022-11-15T03:23:15;42.25;;;22.80;;
76380;SDS011;65202;52.520;10.528;2022-11-15T03:25:45;37.40;;;22.13;;
76380;SDS011;65202;52.520;10.528;2022-11-15T03:28:18;33.15;;;19.80;;
76380;SDS011;65202;52.520;10.528;2022-11-15T03:30:55;35.17;;;22.17;;
76380;SDS011;65202;52.520;10.528;2022-11-15T03:33:23;32.88;;;19.77;;
76380;SDS011;65202;52.520;10.528;2022-11-15T03:35:52;35.55;;;21.85;;
76380;SDS011;65202;52.520;10.528;2022-11-15T03:38:23;37.08;;;21.98;;
76380;SDS011;65202;52.520;10.528;2022-11-15T03:40:54;35.33;;;21.73;;
76380;SDS011;65202;52.520;10.528;2022-11-15T03:43:39;39.22;;;20.95;;
76380;SDS011;65202;52.520;10.528;2022-11-15T03:46:19;33.38;;;21.52;;
76380;SDS011;65202;52.520;10.528;2022-11-15T03:48:59;33.83;;;20.05;;
76380;SDS011;65202;52.520;10.528;2022-11-15T03:51:46;28.30;;;17.35;;
76380;SDS011;65202;52.520;10.528;2022-11-15T03:54:13;30.60;;;18.55;;
76380;SDS011;65202;52.520;10.528;2022-11-15T03:56:41;25.98;;;17.75;;
76380;SDS011;65202;52.520;10.528;2022-11-15T03:59:08;27.52;;;18.15;;
76380;SDS011;65202;52.520;10.528;2022-11-15T04:01:35;27.58;;;18.08;;
76380;SDS011;65202;52.520;10.528;2022-11-15T04:04:02;27.67;;;17.88;;
76380;SDS011;65202;52.520;10.528;2022-11-15T04:06:30;28.73;;;16.95;;
76380;SDS011;65202;52.520;10.528;2022-11-15T04:08:57;26.00;;;16.95;;
76380;SDS011;65202;52.520;10.528;2022-11-15T04:11:24;28.42;;;18.15;;
76380;SDS011;65202;52.520;10.528;2022-11-15T04:13:51;30.98;;;18.00;;
76380;SDS011;65202;52.520;10.528;2022-11-15T04:16:18;27.75;;;18.17;;
76380;SDS011;65202;52.520;10.528;2022-11-15T04:18:46;32.28;;;17.77;;
76380;SDS011;65202;52.520;10.528;2022-11-15T04:21:33;28.55;;;17.40;;
76380;SDS011;65202;52.520;10.528;2022-11-15T04:24:19;33.25;;;18.67;;
76380;SDS011;65202;52.520;10.528;2022-11-15T04:26:46;28.05;;;17.33;;
76380;SDS011;65202;52.520;10.528;2022-11-15T04:29:13;31.65;;;19.42;;
76380;SDS011;65202;52.520;10.528;2022-11-15T04:31:59;37.75;;;19.50;;
76380;SDS011;65202;52.520;10.528;2022-11-15T04:34:28;34.35;;;20.90;;
76380;SDS011;65202;52.520;10.528;2022-11-15T04:36:55;39.15;;;22.02;;
76380;SDS011;65202;52.520;10.528;2022-11-15T04:39:39;37.88;;;20.77;;
76380;SDS011;65202;52.520;10.528;2022-11-15T04:42:07;40.30;;;24.05;;
76380;SDS011;65202;52.520;10.528;2022-11-15T04:44:35;40.70;;;23.52;;
76380;SDS011;65202;52.520;10.528;2022-11-15T04:47:02;46.97;;;25.05;;
76380;SDS011;65202;52.520;10.528;2022-11-15T04:49:30;34.15;;;20.58;;
76380;SDS011;65202;52.520;10.528;2022-11-15T04:51:57;39.92;;;22.90;;
76380;SDS011;65202;52.520;10.528;2022-11-15T04:54:24;30.70;;;19.25;;
76380;SDS011;65202;52.520;10.528;2022-11-15T04:56:52;26.38;;;17.10;;
76380;SDS011;65202;52.520;10.528;2022-11-15T04:59:19;24.70;;;16.02;;
76380;SDS011;65202;52.520;10.528;2022-11-15T05:01:46;31.25;;;19.60;;
76380;SDS011;65202;52.520;10.528;2022-11-15T05:04:13;33.63;;;20.65;;
76380;SDS011;65202;52.520;10.528;2022-11-15T05:06:47;37.17;;;20.25;;
76380;SDS011;65202;52.520;10.528;2022-11-15T05:09:18;32.92;;;20.20;;
76380;SDS011;65202;52.520;10.528;2022-11-15T05:11:47;34.60;;;20.35;;
76380;SDS011;65202;52.520;10.528;2022-11-15T05:14:14;34.03;;;20.05;;
76380;SDS011;65202;52.520;10.528;2022-11-15T05:16:42;32.55;;;18.83;;
76380;SDS011;65202;52.520;10.528;2022-11-15T05:19:10;35.45;;;21.10;;
76380;SDS011;65202;52.520;10.528;2022-11-15T05:21:37;34.75;;;19.92;;
76380;SDS011;65202;52.520;10.528;2022-11-15T05:24:04;37.22;;;21.95;;
76380;SDS011;65202;52.520;10.528;2022-11-15T05:26:32;32.97;;;19.70;;
76380;SDS011;65202;52.520;10.528;2022-11-15T05:28:59;32.60;;;20.20;;
76380;SDS011;65202;52.520;10.528;2022-11-15T05:31:26;43.42;;;23.45;;
76380;SDS011;65202;52.520;10.528;2022-11-15T05:33:55;36.05;;;22.23;;
76380;SDS011;65202;52.520;10.528;2022-11-15T05:39:02;50.45;;;28.20;;
76380;SDS011;65202;52.520;10.528;2022-11-15T05:41:39;52.35;;;28.60;;
76380;SDS011;65202;52.520;10.528;2022-11-15T05:44:13;48.70;;;26.77;;
76380;SDS011;65202;52.520;10.528;2022-11-15T05:46:46;62.72;;;32.80;;
76380;SDS011;65202;52.520;10.528;2022-11-15T05:49:18;50.33;;;29.10;;
76380;SDS011;65202;52.520;10.528;2022-11-15T05:51:51;48.05;;;27.85;;
76380;SDS011;65202;52.520;10.528;2022-11-15T05:54:20;45.05;;;25.92;;
76380;SDS011;65202;52.520;10.528;2022-11-15T05:56:50;41.42;;;25.02;;
76380;SDS011;65202;52.520;10.528;2022-11-15T05:59:18;43.33;;;24.63;;
76380;SDS011;65202;52.520;10.528;2022-11-15T06:01:46;39.72;;;23.50;;
76380;SDS011;65202;52.520;10.528;2022-11-15T06:04:13;37.70;;;23.77;;
76380;SDS011;65202;52.520;10.528;2022-11-15T06:06:40;43.70;;;25.38;;
76380;SDS011;65202;52.520;10.528;2022-11-15T06:09:08;43.92;;;25.50;;
76380;SDS011;65202;52.520;10.528;2022-11-15T06:11:35;42.35;;;25.30;;
76380;SDS011;65202;52.520;10.528;2022-11-15T06:14:02;39.78;;;23.75;;
76380;SDS011;65202;52.520;10.528;2022-11-15T06:16:29;42.95;;;24.52;;
76380;SDS011;65202;52.520;10.528;2022-11-15T06:18:56;35.40;;;21.23;;
76380;SDS011;65202;52.520;10.528;2022-11-15T06:21:24;37.35;;;22.85;;
76380;SDS011;65202;52.520;10.528;2022-11-15T06:23:51;36.78;;;22.05;;
76380;SDS011;65202;52.520;10.528;2022-11-15T06:26:18;39.22;;;23.48;;
76380;SDS011;65202;52.520;10.528;2022-11-15T06:28:46;40.70;;;22.90;;
76380;SDS011;65202;52.520;10.528;2022-11-15T06:31:13;40.88;;;22.95;;
76380;SDS011;65202;52.520;10.528;2022-11-15T06:33:40;40.83;;;23.88;;
76380;SDS011;65202;52.520;10.528;2022-11-15T06:36:08;34.47;;;21.48;;
76380;SDS011;65202;52.520;10.528;2022-11-15T06:38:44;45.17;;;23.98;;
76380;SDS011;65202;52.520;10.528;2022-11-15T06:41:12;35.13;;;21.60;;
76380;SDS011;65202;52.520;10.528;2022-11-15T06:43:41;36.20;;;21.45;;
76380;SDS011;65202;52.520;10.528;2022-11-15T06:46:08;39.53;;;22.90;;
76380;SDS011;65202;52.520;10.528;2022-11-15T06:48:36;37.70;;;21.20;;
76380;SDS011;65202;52.520;10.528;2022-11-15T06:51:04;34.70;;;21.38;;
76380;SDS011;65202;52.520;10.528;2022-11-15T06:53:32;34.85;;;22.23;;
76380;SDS011;65202;52.520;10.528;2022-11-15T06:56:04;42.95;;;24.67;;
76380;SDS011;65202;52.520;10.528;2022-11-15T06:58:33;41.80;;;21.40;;
76380;SDS011;65202;52.520;10.528;2022-11-15T07:01:05;44.78;;;24.40;;
76380;SDS011;65202;52.520;10.528;2022-11-15T07:03:37;38.53;;;22.13;;
76380;SDS011;65202;52.520;10.528;2022-11-15T07:06:07;35.88;;;22.02;;
76380;SDS011;65202;52.520;10.528;2022-11-15T07:08:35;37.17;;;22.02;;
76380;SDS011;65202;52.520;10.528;2022-11-15T07:11:04;41.97;;;22.80;;
76380;SDS011;65202;52.520;10.528;2022-11-15T07:13:34;40.40;;;23.13;;
76380;SDS011;65202;52.520;10.528;2022-11-15T07:16:07;39.35;;;20.27;;
76380;SDS011;65202;52.520;10.528;2022-11-15T07:18:37;38.95;;;21.58;;
76380;SDS011;65202;52.520;10.528;2022-11-15T07:21:08;32.72;;;19.63;;
76380;SDS011;65202;52.520;10.528;2022-11-15T07:23:37;41.05;;;19.83;;
76380;SDS011;65202;52.520;10.528;2022-11-15T07:26:06;36.55;;;23.17;;
76380;SDS011;65202;52.520;10.528;2022-11-15T07:28:35;39.28;;;23.38;;
76380;SDS011;65202;52.520;10.528;2022-11-15T07:31:06;38.20;;;22.38;;
76380;SDS011;65202;52.520;10.528;2022-11-15T07:33:35;36.50;;;22.92;;
76380;SDS011;65202;52.520;10.528;2022-11-15T07:36:03;38.70;;;23.05;;
76380;SDS011;65202;52.520;10.528;2022-11-15T07:38:33;41.33;;;23.92;;
76380;SDS011;65202;52.520;10.528;2022-11-15T07:41:08;39.22;;;23.67;;
76380;SDS011;65202;52.520;10.528;2022-11-15T07:43:36;35.70;;;22.48;;
76380;SDS011;65202;52.520;10.528;2022-11-15T07:46:05;41.30;;;24.38;;
76380;SDS011;65202;52.520;10.528;2022-11-15T07:48:36;36.83;;;24.25;;
76380;SDS011;65202;52.520;10.528;2022-11-15T07:51:14;35.22;;;22.67;;
76380;SDS011;65202;52.520;10.528;2022-11-15T07:53:43;40.15;;;22.92;;
76380;SDS011;65202;52.520;10.528;2022-11-15T07:56:10;31.92;;;22.13;;
76380;SDS011;65202;52.520;10.528;2022-11-15T07:58:38;33.83;;;21.58;;
76380;SDS011;65202;52.520;10.528;2022-11-15T08:01:07;34.92;;;21.25;;
76380;SDS011;65202;52.520;10.528;2022-11-15T08:03:38;30.15;;;19.50;;
76380;SDS011;65202;52.520;10.528;2022-11-15T08:06:05;31.27;;;17.17;;
76380;SDS011;65202;52.520;10.528;2022-11-15T08:08:33;22.48;;;14.60;;
76380;SDS011;65202;52.520;10.528;2022-11-15T08:11:00;22.23;;;14.23;;
76380;SDS011;65202;52.520;10.528;2022-11-15T08:13:27;19.92;;;14.18;;
76380;SDS011;65202;52.520;10.528;2022-11-15T08:15:59;21.60;;;13.68;;
76380;SDS011;65202;52.520;10.528;2022-11-15T08:18:27;22.07;;;14.03;;
76380;SDS011;65202;52.520;10.528;2022-11-15T08:20:58;24.60;;;13.63;;
76380;SDS011;65202;52.520;10.528;2022-11-15T08:23:27;21.50;;;12.90;;
76380;SDS011;65202;52.520;10.528;2022-11-15T08:26:01;18.92;;;12.45;;
76380;SDS011;65202;52.520;10.528;2022-11-15T08:28:31;23.60;;;12.95;;
76380;SDS011;65202;52.520;10.528;2022-11-15T08:30:58;20.50;;;13.70;;
76380;SDS011;65202;52.520;10.528;2022-11-15T08:33:26;19.15;;;13.98;;
76380;SDS011;65202;52.520;10.528;2022-11-15T08:35:58;20.48;;;13.80;;
76380;SDS011;65202;52.520;10.528;2022-11-15T08:38:27;19.13;;;12.67;;
76380;SDS011;65202;52.520;10.528;2022-11-15T08:41:00;17.38;;;11.80;;
76380;SDS011;65202;52.520;10.528;2022-11-15T08:43:30;15.70;;;11.03;;
76380;SDS011;65202;52.520;10.528;2022-11-15T08:45:58;13.93;;;10.52;;
76380;SDS011;65202;52.520;10.528;2022-11-15T08:48:25;14.23;;;9.93;;
76380;SDS011;65202;52.520;10.528;2022-11-15T08:50:53;13.75;;;9.38;;
76380;SDS011;65202;52.520;10.528;2022-11-15T08:53:22;13.90;;;9.73;;
76380;SDS011;65202;52.520;10.528;2022-11-15T08:55:50;14.25;;;9.82;;
76380;SDS011;65202;52.520;10.528;2022-11-15T08:58:17;20.85;;;9.88;;
76380;SDS011;65202;52.520;10.528;2022-11-15T09:00:44;15.73;;;9.60;;
76380;SDS011;65202;52.520;10.528;2022-11-15T09:03:11;13.75;;;9.68;;
76380;SDS011;65202;52.520;10.528;2022-11-15T09:05:38;12.95;;;9.52;;
76380;SDS011;65202;52.520;10.528;2022-11-15T09:08:06;12.85;;;9.40;;
76380;SDS011;65202;52.520;10.528;2022-11-15T09:10:53;12.10;;;9.55;;
76380;SDS011;65202;52.520;10.528;2022-11-15T09:13:20;11.43;;;8.73;;
76380;SDS011;65202;52.520;10.528;2022-11-15T09:15:48;11.40;;;8.27;;
76380;SDS011;65202;52.520;10.528;2022-11-15T09:18:15;11.35;;;8.43;;
76380;SDS011;65202;52.520;10.528;2022-11-15T09:20:43;11.95;;;9.13;;
76380;SDS011;65202;52.520;10.528;2022-11-15T09:23:10;14.15;;;8.40;;
76380;SDS011;65202;52.520;10.528;2022-11-15T09:25:37;12.02;;;7.70;;
76380;SDS011;65202;52.520;10.528;2022-11-15T09:28:07;10.75;;;7.38;;
76380;SDS011;65202;52.520;10.528;2022-11-15T09:30:35;11.82;;;7.07;;
76380;SDS011;65202;52.520;10.528;2022-11-15T09:33:08;10.13;;;7.32;;
76380;SDS011;65202;52.520;10.528;2022-11-15T09:35:37;12.80;;;6.38;;
76380;SDS011;65202;52.520;10.528;2022-11-15T09:38:04;10.88;;;6.32;;
76380;SDS011;65202;52.520;10.528;2022-11-15T09:40:32;7.35;;;6.05;;
76380;SDS011;65202;52.520;10.528;2022-11-15T09:43:06;9.77;;;6.10;;
76380;SDS011;65202;52.520;10.528;2022-11-15T09:49:17;8.75;;;6.00;;
76380;SDS011;65202;52.520;10.528;2022-11-15T09:51:47;9.43;;;5.50;;
76380;SDS011;65202;52.520;10.528;2022-11-15T09:57:26;8.32;;;5.60;;
76380;SDS011;65202;52.520;10.528;2022-11-15T10:03:26;8.32;;;5.40;;
76380;SDS011;65202;52.520;10.528;2022-11-15T10:06:01;16.42;;;5.45;;
76380;SDS011;65202;52.520;10.528;2022-11-15T10:08:51;7.70;;;5.03;;
76380;SDS011;65202;52.520;10.528;2022-11-15T10:11:29;8.55;;;4.80;;
76380;SDS011;65202;52.520;10.528;2022-11-15T10:14:14;8.15;;;4.60;;
76380;SDS011;65202;52.520;10.528;2022-11-15T10:20:02;6.95;;;4.70;;
76380;SDS011;65202;52.520;10.528;2022-11-15T10:22:51;5.93;;;4.80;;
76380;SDS011;65202;52.520;10.528;2022-11-15T10:25:24;8.73;;;5.43;;
76380;SDS011;65202;52.520;10.528;2022-11-15T10:28:05;8.23;;;5.70;;
76380;SDS011;65202;52.520;10.528;2022-11-15T10:30:45;6.80;;;5.45;;
76380;SDS011;65202;52.520;10.528;2022-11-15T10:39:13;14.02;;;5.90;;
76380;SDS011;65202;52.520;10.528;2022-11-15T10:41:40;9.25;;;6.38;;
76380;SDS011;65202;52.520;10.528;2022-11-15T10:44:17;10.52;;;6.18;;
76380;SDS011;65202;52.520;10.528;2022-11-15T10:49:26;9.35;;;5.70;;
76380;SDS011;65202;52.520;10.528;2022-11-15T10:51:57;11.88;;;6.53;;
76380;SDS011;65202;52.520;10.528;2022-11-15T10:54:40;12.00;;;6.93;;
76380;SDS011;65202;52.520;10.528;2022-11-15T10:59:48;8.65;;;5.65;;
76380;SDS011;65202;52.520;10.528;2022-11-15T11:02:28;12.88;;;6.40;;
76380;SDS011;65202;52.520;10.528;2022-11-15T11:05:03;9.40;;;6.32;;
76380;SDS011;65202;52.520;10.528;2022-11-15T11:07:56;13.52;;;6.05;;
76380;SDS011;65202;52.520;10.528;2022-11-15T11:10:30;9.25;;;5.88;;
76380;SDS011;65202;52.520;10.528;2022-11-15T11:13:30;11.80;;;5.40;;
76380;SDS011;65202;52.520;10.528;2022-11-15T11:18:51;6.82;;;5.30;;
76380;SDS011;65202;52.520;10.528;2022-11-15T11:24:22;9.93;;;5.43;;
76380;SDS011;65202;52.520;10.528;2022-11-15T11:27:15;12.93;;;5.75;;
76380;SDS011;65202;52.520;10.528;2022-11-15T11:30:06;8.60;;;5.10;;
76380;SDS011;65202;52.520;10.528;2022-11-15T11:36:11;11.85;;;6.30;;
76380;SDS011;65202;52.520;10.528;2022-11-15T11:38:53;9.70;;;5.63;;
76380;SDS011;65202;52.520;10.528;2022-11-15T11:44:27;8.48;;;5.28;;
76380;SDS011;65202;52.520;10.528;2022-11-15T11:47:23;6.40;;;4.88;;
76380;SDS011;65202;52.520;10.528;2022-11-15T11:50:01;9.27;;;5.00;;
76380;SDS011;65202;52.520;10.528;2022-11-15T11:52:53;6.93;;;4.97;;
76380;SDS011;65202;52.520;10.528;2022-11-15T11:55:33;8.25;;;5.18;;
76380;SDS011;65202;52.520;10.528;2022-11-15T11:58:21;6.95;;;5.10;;
76380;SDS011;65202;52.520;10.528;2022-11-15T12:03:49;7.22;;;5.07;;
76380;SDS011;65202;52.520;10.528;2022-11-15T12:06:33;6.65;;;5.07;;
76380;SDS011;65202;52.520;10.528;2022-11-15T12:09:13;8.30;;;6.05;;
76380;SDS011;65202;52.520;10.528;2022-11-15T12:12:08;10.13;;;5.65;;
76380;SDS011;65202;52.520;10.528;2022-11-15T12:14:46;9.67;;;6.43;;
76380;SDS011;65202;52.520;10.528;2022-11-15T12:17:27;10.50;;;5.60;;
76380;SDS011;65202;52.520;10.528;2022-11-15T12:20:04;8.00;;;5.68;;
76380;SDS011;65202;52.520;10.528;2022-11-15T12:22:54;7.78;;;5.63;;
76380;SDS011;65202;52.520;10.528;2022-11-15T12:25:51;6.72;;;5.45;;
76380;SDS011;65202;52.520;10.528;2022-11-15T12:28:44;8.45;;;5.25;;
76380;SDS011;65202;52.520;10.528;2022-11-15T12:31:43;11.82;;;5.50;;
76380;SDS011;65202;52.520;10.528;2022-11-15T12:36:46;12.93;;;5.70;;
76380;SDS011;65202;52.520;10.528;2022-11-15T12:39:16;9.15;;;5.32;;
76380;SDS011;65202;52.520;10.528;2022-11-15T13:02:46;9.32;;;4.82;;
76380;SDS011;65202;52.520;10.528;2022-11-15T13:28:42;6.93;;;4.90;;
76380;SDS011;65202;52.520;10.528;2022-11-15T13:31:19;6.97;;;4.90;;
76380;SDS011;65202;52.520;10.528;2022-11-15T13:33:52;9.80;;;4.97;;
76380;SDS011;65202;52.520;10.528;2022-11-15T13:36:39;7.15;;;5.20;;
76380;SDS011;65202;52.520;10.528;2022-11-15T13:39:26;9.20;;;5.40;;
76380;SDS011;65202;52.520;10.528;2022-11-15T13:41:59;7.88;;;5.40;;
76380;SDS011;65202;52.520;10.528;2022-11-15T13:44:29;12.15;;;5.47;;
76380;SDS011;65202;52.520;10.528;2022-11-15T13:47:03;8.52;;;5.93;;
76380;SDS011;65202;52.520;10.528;2022-11-15T13:49:42;18.88;;;6.07;;
76380;SDS011;65202;52.520;10.528;2022-11-15T13:52:10;14.57;;;7.18;;
76380;SDS011;65202;52.520;10.528;2022-11-15T13:55:02;18.27;;;6.97;;
76380;SDS011;65202;52.520;10.528;2022-11-15T14:03:05;13.75;;;7.28;;
76380;SDS011;65202;52.520;10.528;2022-11-15T14:05:44;11.07;;;6.95;;
76380;SDS011;65202;52.520;10.528;2022-11-15T14:08:58;11.30;;;6.95;;
76380;SDS011;65202;52.520;10.528;2022-11-15T14:11:49;16.13;;;7.63;;
76380;SDS011;65202;52.520;10.528;2022-11-15T14:14:24;14.15;;;7.40;;
76380;SDS011;65202;52.520;10.528;2022-11-15T14:16:57;13.10;;;7.78;;
76380;SDS011;65202;52.520;10.528;2022-11-15T14:22:13;17.00;;;8.52;;
76380;SDS011;65202;52.520;10.528;2022-11-15T14:24:46;19.80;;;9.02;;
76380;SDS011;65202;52.520;10.528;2022-11-15T14:27:34;13.75;;;9.30;;
76380;SDS011;65202;52.520;10.528;2022-11-15T14:30:02;14.00;;;8.60;;
76380;SDS011;65202;52.520;10.528;2022-11-15T14:32:38;14.77;;;9.20;;
76380;SDS011;65202;52.520;10.528;2022-11-15T14:35:19;16.38;;;9.48;;
76380;SDS011;65202;52.520;10.528;2022-11-15T14:37:49;15.50;;;9.05;;
76380;SDS011;65202;52.520;10.528;2022-11-15T14:40:20;13.18;;;8.25;;
76380;SDS011;65202;52.520;10.528;2022-11-15T14:42:49;19.40;;;9.50;;
76380;SDS011;65202;52.520;10.528;2022-11-15T14:45:20;19.25;;;10.07;;
76380;SDS011;65202;52.520;10.528;2022-11-15T14:47:48;18.13;;;9.98;;
76380;SDS011;65202;52.520;10.528;2022-11-15T14:50:19;18.88;;;10.23;;
76380;SDS011;65202;52.520;10.528;2022-11-15T14:52:48;22.50;;;11.10;;
76380;SDS011;65202;52.520;10.528;2022-11-15T14:55:26;18.80;;;11.50;;
76380;SDS011;65202;52.520;10.528;2022-11-15T14:58:02;17.17;;;11.20;;
76380;SDS011;65202;52.520;10.528;2022-11-15T15:00:37;19.45;;;9.85;;
76380;SDS011;65202;52.520;10.528;2022-11-15T15:03:07;22.23;;;10.52;;
76380;SDS011;65202;52.520;10.528;2022-11-15T15:05:36;15.65;;;9.02;;
76380;SDS011;65202;52.520;10.528;2022-11-15T15:08:09;13.75;;;9.07;;
76380;SDS011;65202;52.520;10.528;2022-11-15T15:10:39;15.57;;;9.35;;
76380;SDS011;65202;52.520;10.528;2022-11-15T15:13:12;13.77;;;8.00;;
76380;SDS011;65202;52.520;10.528;2022-11-15T15:15:45;14.38;;;9.10;;
76380;SDS011;65202;52.520;10.528;2022-11-15T15:18:14;14.57;;;8.82;;
76380;SDS011;65202;52.520;10.528;2022-11-15T15:20:42;18.30;;;9.18;;
76380;SDS011;65202;52.520;10.528;2022-11-15T15:23:16;23.80;;;9.65;;
76380;SDS011;65202;52.520;10.528;2022-11-15T15:25:46;13.40;;;8.38;;
76380;SDS011;65202;52.520;10.528;2022-11-15T15:28:15;14.38;;;9.20;;
76380;SDS011;65202;52.520;10.528;2022-11-15T15:30:43;18.67;;;10.43;;
76380;SDS011;65202;52.520;10.528;2022-11-15T15:33:10;15.68;;;8.90;;
76380;SDS011;65202;52.520;10.528;2022-11-15T15:35:37;15.82;;;9.07;;
76380;SDS011;65202;52.520;10.528;2022-11-15T15:38:04;18.15;;;9.98;;
76380;SDS011;65202;52.520;10.528;2022-11-15T15:40:32;17.83;;;9.35;;
76380;SDS011;65202;52.520;10.528;2022-11-15T15:43:00;14.90;;;9.93;;
76380;SDS011;65202;52.520;10.528;2022-11-15T15:45:27;14.23;;;9.80;;
76380;SDS011;65202;52.520;10.528;2022-11-15T15:47:56;20.15;;;10.27;;
76380;SDS011;65202;52.520;10.528;2022-11-15T15:50:27;17.50;;;9.68;;
76380;SDS011;65202;52.520;10.528;2022-11-15T15:52:59;21.02;;;10.68;;
76380;SDS011;65202;52.520;10.528;2022-11-15T15:55:29;19.63;;;10.18;;
76380;SDS011;65202;52.520;10.528;2022-11-15T15:57:57;17.48;;;10.65;;
76380;SDS011;65202;52.520;10.528;2022-11-15T16:00:24;16.80;;;10.10;;
76380;SDS011;65202;52.520;10.528;2022-11-15T16:02:52;21.08;;;10.80;;
76380;SDS011;65202;52.520;10.528;2022-11-15T16:05:20;16.08;;;11.05;;
76380;SDS011;65202;52.520;10.528;2022-11-15T16:07:48;18.58;;;11.48;;
76380;SDS011;65202;52.520;10.528;2022-11-15T16:10:20;19.13;;;12.00;;
76380;SDS011;65202;52.520;10.528;2022-11-15T16:12:55;23.40;;;11.82;;
76380;SDS011;65202;52.520;10.528;2022-11-15T16:15:24;18.70;;;11.60;;
76380;SDS011;65202;52.520;10.528;2022-11-15T16:17:57;16.90;;;11.33;;
76380;SDS011;65202;52.520;10.528;2022-11-15T16:20:31;18.38;;;11.98;;
76380;SDS011;65202;52.520;10.528;2022-11-15T16:23:01;17.85;;;11.73;;
76380;SDS011;65202;52.520;10.528;2022-11-15T16:25:45;20.02;;;11.60;;
76380;SDS011;65202;52.520;10.528;2022-11-15T16:28:16;20.83;;;13.13;;
76380;SDS011;65202;52.520;10.528;2022-11-15T16:30:48;19.88;;;12.82;;
76380;SDS011;65202;52.520;10.528;2022-11-15T16:33:26;22.80;;;12.38;;
76380;SDS011;65202;52.520;10.528;2022-11-15T16:35:54;17.05;;;11.60;;
76380;SDS011;65202;52.520;10.528;2022-11-15T16:38:21;20.60;;;13.20;;
76380;SDS011;65202;52.520;10.528;2022-11-15T16:40:48;24.98;;;14.35;;
76380;SDS011;65202;52.520;10.528;2022-11-15T16:43:15;21.20;;;13.93;;